PWSweather.com
Personal Weather Stations
Station Observations
SUBOTICARS
SuboticaYU

SuboticaYU

Lat: 46.1296717, Lon: 19.641551

Elevation: 361

Station Type: Nexus

http://sumeteo.info

High Low Average
Temperature 94.8°F34.9°C 59.0°F15.0°C 79.8°F26.6°C
Dew Point 66.1°F18.9°C 53.5°F11.9°C 62.0°F16.7°C
Winds 9.2 mph 14.8 kmh Calm Calm 3.0 mph SSW4.8 kmh SSW
Wind Gusts 12.7 mph20.4 kmh -- 4.0 mph6.4 kmh
Humidity 87% 33% 58%
Pressure 29.77 in1008.1 mb 29.63 in1003.4 mb -
Precipitation 0.00 in0.0 mm - -
Hour Temp Dew Point Humidity Winds Wind Gusts Pressure Precip Precip Rate Daily Precip Total
12:00 AM 67.5°F19.7°C 57.4°F14.1°C 70% Calm Calm -- 29.77 in1008.1 mb - 0.00 in0.0 mm 0.00 in0.0 mm
12:10 AM 66.7°F19.3°C 57.4°F14.1°C 72% 1.2 mph SSW1.9 kmh SSW 2.3 mph3.7 kmh 29.77 in1008.1 mb - 0.00 in0.0 mm 0.00 in0.0 mm
12:15 AM 66.4°F19.1°C 57.1°F13.9°C 72% Calm Calm 2.3 mph3.7 kmh 29.78 in1008.5 mb - 0.00 in0.0 mm 0.00 in0.0 mm
12:20 AM 66.2°F19.0°C 57.3°F14.1°C 73% Calm Calm 1.2 mph1.9 kmh 29.78 in1008.5 mb - 0.00 in0.0 mm 0.00 in0.0 mm
12:25 AM 66.0°F18.9°C 57.5°F14.2°C 74% 1.2 mph SSW1.9 kmh SSW 2.3 mph3.7 kmh 29.78 in1008.5 mb - 0.00 in0.0 mm 0.00 in0.0 mm
12:30 AM 66.0°F18.9°C 57.1°F13.9°C 73% Calm Calm 1.2 mph1.9 kmh 29.78 in1008.5 mb - 0.00 in0.0 mm 0.00 in0.0 mm
12:35 AM 65.8°F18.8°C 57.3°F14.1°C 74% 1.2 mph SSW1.9 kmh SSW 1.2 mph1.9 kmh 29.78 in1008.5 mb - 0.00 in0.0 mm 0.00 in0.0 mm
12:40 AM 65.8°F18.8°C 56.9°F13.8°C 73% 2.3 mph SSW3.7 kmh SSW 3.5 mph5.6 kmh 29.78 in1008.5 mb - 0.00 in0.0 mm 0.00 in0.0 mm
12:45 AM 65.8°F18.8°C 56.9°F13.8°C 73% 1.2 mph SSW1.9 kmh SSW 3.5 mph5.6 kmh 29.77 in1008.1 mb - 0.00 in0.0 mm 0.00 in0.0 mm
12:50 AM 65.7°F18.7°C 56.8°F13.8°C 73% 1.2 mph SSW1.9 kmh SSW 2.3 mph3.7 kmh 29.77 in1008.1 mb - 0.00 in0.0 mm 0.00 in0.0 mm
12:55 AM 65.5°F18.6°C 57.0°F13.9°C 74% 1.2 mph SSW1.9 kmh SSW 2.3 mph3.7 kmh 29.77 in1008.1 mb - 0.00 in0.0 mm 0.00 in0.0 mm
01:00 AM 65.3°F18.5°C 56.8°F13.8°C 74% Calm Calm 1.2 mph1.9 kmh 29.77 in1008.1 mb - 0.00 in0.0 mm 0.00 in0.0 mm
01:10 AM 64.9°F18.3°C 56.8°F13.8°C 75% 1.2 mph SSW1.9 kmh SSW 2.3 mph3.7 kmh 29.77 in1008.1 mb - 0.00 in0.0 mm 0.00 in0.0 mm
01:15 AM 65.1°F18.4°C 57.0°F13.9°C 75% 2.3 mph SSW3.7 kmh SSW 2.3 mph3.7 kmh 29.77 in1008.1 mb - 0.00 in0.0 mm 0.00 in0.0 mm
01:20 AM 64.9°F18.3°C 56.8°F13.8°C 75% 2.3 mph SSW3.7 kmh SSW 3.5 mph5.6 kmh 29.77 in1008.1 mb - 0.00 in0.0 mm 0.00 in0.0 mm
01:25 AM 64.8°F18.2°C 56.3°F13.5°C 74% 2.3 mph SSW3.7 kmh SSW 2.3 mph3.7 kmh 29.77 in1008.1 mb - 0.00 in0.0 mm 0.00 in0.0 mm
01:30 AM 64.6°F18.1°C 56.2°F13.4°C 74% 1.2 mph SSW1.9 kmh SSW 2.3 mph3.7 kmh 29.77 in1008.1 mb - 0.00 in0.0 mm 0.00 in0.0 mm
01:35 AM 64.6°F18.1°C 56.1°F13.4°C 74% Calm Calm 1.2 mph1.9 kmh 29.77 in1008.1 mb - 0.00 in0.0 mm 0.00 in0.0 mm
01:40 AM 64.4°F18.0°C 56.3°F13.5°C 75% Calm Calm -- 29.77 in1008.1 mb - 0.00 in0.0 mm 0.00 in0.0 mm
01:45 AM 64.0°F17.8°C 56.0°F13.3°C 75% Calm Calm -- 29.76 in1007.8 mb - 0.00 in0.0 mm 0.00 in0.0 mm
01:50 AM 63.7°F17.6°C 55.6°F13.1°C 75% Calm Calm -- 29.76 in1007.8 mb - 0.00 in0.0 mm 0.00 in0.0 mm
01:55 AM 63.3°F17.4°C 55.3°F12.9°C 75% Calm Calm -- 29.76 in1007.8 mb - 0.00 in0.0 mm 0.00 in0.0 mm
02:00 AM 63.1°F17.3°C 55.4°F13.0°C 76% Calm Calm -- 29.76 in1007.8 mb - 0.00 in0.0 mm 0.00 in0.0 mm
02:10 AM 62.6°F17.0°C 54.9°F12.7°C 76% Calm Calm -- 29.76 in1007.8 mb - 0.00 in0.0 mm 0.00 in0.0 mm
02:15 AM 62.2°F16.8°C 55.3°F12.9°C 78% Calm Calm -- 29.76 in1007.8 mb - 0.00 in0.0 mm 0.00 in0.0 mm
02:20 AM 62.1°F16.7°C 55.5°F13.1°C 79% Calm Calm -- 29.76 in1007.8 mb - 0.00 in0.0 mm 0.00 in0.0 mm
02:25 AM 61.9°F16.6°C 55.3°F12.9°C 79% Calm Calm -- 29.76 in1007.8 mb - 0.00 in0.0 mm 0.00 in0.0 mm
02:30 AM 61.8°F16.6°C 55.2°F12.9°C 79% Calm Calm -- 29.76 in1007.8 mb - 0.00 in0.0 mm 0.00 in0.0 mm
02:35 AM 61.7°F16.5°C 55.1°F12.8°C 79% Calm Calm -- 29.76 in1007.8 mb - 0.00 in0.0 mm 0.00 in0.0 mm
02:40 AM 61.3°F16.3°C 54.8°F12.7°C 79% Calm Calm -- 29.76 in1007.8 mb - 0.00 in0.0 mm 0.00 in0.0 mm
02:45 AM 61.3°F16.3°C 55.1°F12.8°C 80% Calm Calm -- 29.75 in1007.5 mb - 0.00 in0.0 mm 0.00 in0.0 mm
02:50 AM 61.2°F16.2°C 54.9°F12.7°C 80% Calm Calm -- 29.75 in1007.5 mb - 0.00 in0.0 mm 0.00 in0.0 mm
02:55 AM 61.0°F16.1°C 54.8°F12.7°C 80% Calm Calm -- 29.75 in1007.5 mb - 0.00 in0.0 mm 0.00 in0.0 mm
03:00 AM 61.2°F16.2°C 55.3°F12.9°C 81% Calm Calm -- 29.76 in1007.8 mb - 0.00 in0.0 mm 0.00 in0.0 mm
03:10 AM 61.0°F16.1°C 55.4°F13.0°C 82% Calm Calm -- 29.76 in1007.8 mb - 0.00 in0.0 mm 0.00 in0.0 mm
03:15 AM 60.8°F16.0°C 54.9°F12.7°C 81% Calm Calm -- 29.75 in1007.5 mb - 0.00 in0.0 mm 0.00 in0.0 mm
03:20 AM 60.6°F15.9°C 54.8°F12.7°C 81% Calm Calm -- 29.75 in1007.5 mb - 0.00 in0.0 mm 0.00 in0.0 mm
03:25 AM 60.5°F15.8°C 54.6°F12.6°C 81% Calm Calm -- 29.75 in1007.5 mb - 0.00 in0.0 mm 0.00 in0.0 mm
03:30 AM 60.4°F15.8°C 54.5°F12.5°C 81% Calm Calm 1.2 mph1.9 kmh 29.75 in1007.5 mb - 0.00 in0.0 mm 0.00 in0.0 mm
03:35 AM 60.2°F15.7°C 54.4°F12.4°C 81% Calm Calm -- 29.75 in1007.5 mb - 0.00 in0.0 mm 0.00 in0.0 mm
03:40 AM 60.1°F15.6°C 54.2°F12.3°C 81% Calm Calm -- 29.75 in1007.5 mb - 0.00 in0.0 mm 0.00 in0.0 mm
03:45 AM 59.9°F15.5°C 54.4°F12.4°C 82% Calm Calm -- 29.75 in1007.5 mb - 0.00 in0.0 mm 0.00 in0.0 mm
03:50 AM 59.7°F15.4°C 54.2°F12.3°C 82% Calm Calm -- 29.75 in1007.5 mb - 0.00 in0.0 mm 0.00 in0.0 mm
03:55 AM 59.7°F15.4°C 54.2°F12.3°C 82% Calm Calm -- 29.75 in1007.5 mb - 0.00 in0.0 mm 0.00 in0.0 mm
04:00 AM 59.5°F15.3°C 54.0°F12.2°C 82% Calm Calm -- 29.75 in1007.5 mb - 0.00 in0.0 mm 0.00 in0.0 mm
04:10 AM 59.2°F15.1°C 53.7°F12.1°C 82% Calm Calm -- 29.75 in1007.5 mb - 0.00 in0.0 mm 0.00 in0.0 mm
04:15 AM 59.2°F15.1°C 53.7°F12.1°C 82% Calm Calm -- 29.75 in1007.5 mb - 0.00 in0.0 mm 0.00 in0.0 mm
04:20 AM 59.2°F15.1°C 53.7°F12.1°C 82% Calm Calm -- 29.75 in1007.5 mb - 0.00 in0.0 mm 0.00 in0.0 mm
04:25 AM 59.2°F15.1°C 53.7°F12.1°C 82% Calm Calm -- 29.75 in1007.5 mb - 0.00 in0.0 mm 0.00 in0.0 mm
04:30 AM 59.0°F15.0°C 53.5°F11.9°C 82% Calm Calm -- 29.75 in1007.5 mb - 0.00 in0.0 mm 0.00 in0.0 mm
04:35 AM 59.0°F15.0°C 53.8°F12.1°C 83% Calm Calm -- 29.75 in1007.5 mb - 0.00 in0.0 mm 0.00 in0.0 mm
04:40 AM 59.2°F15.1°C 54.0°F12.2°C 83% Calm Calm -- 29.75 in1007.5 mb - 0.00 in0.0 mm 0.00 in0.0 mm
04:45 AM 59.2°F15.1°C 54.0°F12.2°C 83% Calm Calm -- 29.75 in1007.5 mb - 0.00 in0.0 mm 0.00 in0.0 mm
04:50 AM 59.5°F15.3°C 54.7°F12.6°C 84% Calm Calm -- 29.75 in1007.5 mb - 0.00 in0.0 mm 0.00 in0.0 mm
04:55 AM 59.5°F15.3°C 54.7°F12.6°C 84% Calm Calm -- 29.75 in1007.5 mb - 0.00 in0.0 mm 0.00 in0.0 mm
05:00 AM 59.9°F15.5°C 55.0°F12.8°C 84% Calm Calm -- 29.75 in1007.5 mb - 0.00 in0.0 mm 0.00 in0.0 mm
05:10 AM 60.6°F15.9°C 56.4°F13.6°C 86% Calm Calm -- 29.75 in1007.5 mb - 0.00 in0.0 mm 0.00 in0.0 mm
05:15 AM 61.2°F16.2°C 56.9°F13.8°C 86% Calm Calm -- 29.75 in1007.5 mb - 0.00 in0.0 mm 0.00 in0.0 mm
05:20 AM 61.9°F16.6°C 58.0°F14.4°C 87% Calm Calm -- 29.75 in1007.5 mb - 0.00 in0.0 mm 0.00 in0.0 mm
05:25 AM 62.5°F16.9°C 58.3°F14.6°C 86% Calm Calm -- 29.75 in1007.5 mb - 0.00 in0.0 mm 0.00 in0.0 mm
05:30 AM 63.3°F17.4°C 59.0°F15.0°C 86% Calm Calm 2.3 mph3.7 kmh 29.75 in1007.5 mb - 0.00 in0.0 mm 0.00 in0.0 mm
05:35 AM 63.9°F17.7°C 59.6°F15.3°C 86% 2.3 mph SE3.7 kmh SE 3.5 mph5.6 kmh 29.75 in1007.5 mb - 0.00 in0.0 mm 0.00 in0.0 mm
05:40 AM 64.6°F18.1°C 59.6°F15.3°C 84% Calm Calm -- 29.75 in1007.5 mb - 0.00 in0.0 mm 0.00 in0.0 mm
05:45 AM 65.5°F18.6°C 60.5°F15.8°C 84% Calm Calm -- 29.75 in1007.5 mb - 0.00 in0.0 mm 0.00 in0.0 mm
05:50 AM 66.5°F19.2°C 60.9°F16.1°C 82% 1.2 mph SE1.9 kmh SE 2.3 mph3.7 kmh 29.75 in1007.5 mb - 0.00 in0.0 mm 0.00 in0.0 mm
05:55 AM 67.3°F19.6°C 61.3°F16.3°C 81% 1.2 mph SE1.9 kmh SE 3.5 mph5.6 kmh 29.75 in1007.5 mb - 0.00 in0.0 mm 0.00 in0.0 mm
06:00 AM 67.8°F19.9°C 61.4°F16.3°C 80% 2.3 mph SE3.7 kmh SE 2.3 mph3.7 kmh 29.74 in1007.1 mb - 0.00 in0.0 mm 0.00 in0.0 mm
06:10 AM 69.1°F20.6°C 62.3°F16.8°C 79% 1.2 mph SSE1.9 kmh SSE -- 29.74 in1007.1 mb - 0.00 in0.0 mm 0.00 in0.0 mm
06:15 AM 70.2°F21.2°C 61.9°F16.6°C 75% 2.3 mph SSW3.7 kmh SSW 3.5 mph5.6 kmh 29.75 in1007.5 mb - 0.00 in0.0 mm 0.00 in0.0 mm
06:20 AM 71.0°F21.7°C 61.9°F16.6°C 73% 2.3 mph SSW3.7 kmh SSW 3.5 mph5.6 kmh 29.75 in1007.5 mb - 0.00 in0.0 mm 0.00 in0.0 mm
06:25 AM 71.7°F22.1°C 62.2°F16.8°C 72% 1.2 mph S1.9 kmh S 3.5 mph5.6 kmh 29.75 in1007.5 mb - 0.00 in0.0 mm 0.00 in0.0 mm
06:30 AM 72.4°F22.4°C 62.4°F16.9°C 71% 4.6 mph SSW7.4 kmh SSW 3.5 mph5.6 kmh 29.75 in1007.5 mb - 0.00 in0.0 mm 0.00 in0.0 mm
06:35 AM 72.9°F22.7°C 62.1°F16.7°C 69% 4.6 mph S7.4 kmh S 3.5 mph5.6 kmh 29.75 in1007.5 mb - 0.00 in0.0 mm 0.00 in0.0 mm
06:40 AM 73.6°F23.1°C 62.8°F17.1°C 69% 4.6 mph SSW7.4 kmh SSW 3.5 mph5.6 kmh 29.75 in1007.5 mb - 0.00 in0.0 mm 0.00 in0.0 mm
06:45 AM 74.1°F23.4°C 62.9°F17.2°C 68% 2.3 mph SSW3.7 kmh SSW 4.6 mph7.4 kmh 29.75 in1007.5 mb - 0.00 in0.0 mm 0.00 in0.0 mm
06:50 AM 74.8°F23.8°C 63.5°F17.5°C 68% 3.5 mph SSW5.6 kmh SSW 4.6 mph7.4 kmh 29.75 in1007.5 mb - 0.00 in0.0 mm 0.00 in0.0 mm
06:55 AM 75.3°F24.1°C 62.7°F17.1°C 65% 6.9 mph SW11.1 kmh SW 6.9 mph11.1 kmh 29.75 in1007.5 mb - 0.00 in0.0 mm 0.00 in0.0 mm
07:00 AM 75.6°F24.2°C 62.6°F17.0°C 64% 5.8 mph SSW9.3 kmh SSW 9.2 mph14.8 kmh 29.74 in1007.1 mb - 0.00 in0.0 mm 0.00 in0.0 mm
07:10 AM 76.6°F24.8°C 63.5°F17.5°C 64% 6.9 mph S11.1 kmh S 9.2 mph14.8 kmh 29.74 in1007.1 mb - 0.00 in0.0 mm 0.00 in0.0 mm
07:15 AM 77.0°F25.0°C 63.0°F17.2°C 62% 5.8 mph SW9.3 kmh SW 5.8 mph9.3 kmh 29.74 in1007.1 mb - 0.00 in0.0 mm 0.00 in0.0 mm
07:20 AM 77.5°F25.3°C 63.0°F17.2°C 61% 4.6 mph SW7.4 kmh SW 5.8 mph9.3 kmh 29.74 in1007.1 mb - 0.00 in0.0 mm 0.00 in0.0 mm
07:25 AM 77.6°F25.3°C 62.6°F17.0°C 60% 5.8 mph SSW9.3 kmh SSW 5.8 mph9.3 kmh 29.74 in1007.1 mb - 0.00 in0.0 mm 0.00 in0.0 mm
07:30 AM 77.9°F25.5°C 63.4°F17.4°C 61% 5.8 mph SSW9.3 kmh SSW 6.9 mph11.1 kmh 29.75 in1007.5 mb - 0.00 in0.0 mm 0.00 in0.0 mm
07:35 AM 78.4°F25.8°C 63.4°F17.4°C 60% 4.6 mph SSW7.4 kmh SSW 5.8 mph9.3 kmh 29.75 in1007.5 mb - 0.00 in0.0 mm 0.00 in0.0 mm
07:40 AM 78.6°F25.9°C 63.6°F17.6°C 60% 5.8 mph S9.3 kmh S 6.9 mph11.1 kmh 29.75 in1007.5 mb - 0.00 in0.0 mm 0.00 in0.0 mm
07:45 AM 79.3°F26.3°C 64.2°F17.9°C 60% 4.6 mph S7.4 kmh S 4.6 mph7.4 kmh 29.74 in1007.1 mb - 0.00 in0.0 mm 0.00 in0.0 mm
07:50 AM 79.8°F26.6°C 64.2°F17.9°C 59% 4.6 mph SW7.4 kmh SW 4.6 mph7.4 kmh 29.74 in1007.1 mb - 0.00 in0.0 mm 0.00 in0.0 mm
07:55 AM 80.2°F26.8°C 64.5°F18.1°C 59% 5.8 mph SE9.3 kmh SE 6.9 mph11.1 kmh 29.74 in1007.1 mb - 0.00 in0.0 mm 0.00 in0.0 mm
08:00 AM 80.6°F27.0°C 64.5°F18.1°C 58% 6.9 mph SE11.1 kmh SE 12.7 mph20.4 kmh 29.74 in1007.1 mb - 0.00 in0.0 mm 0.00 in0.0 mm
08:10 AM 81.1°F27.3°C 64.0°F17.8°C 56% 4.6 mph SSW7.4 kmh SSW 8.1 mph13.0 kmh 29.74 in1007.1 mb - 0.00 in0.0 mm 0.00 in0.0 mm
08:15 AM 81.3°F27.4°C 63.6°F17.6°C 55% 5.8 mph SW9.3 kmh SW 8.1 mph13.0 kmh 29.73 in1006.8 mb - 0.00 in0.0 mm 0.00 in0.0 mm
08:20 AM 81.6°F27.6°C 64.4°F18.0°C 56% 4.6 mph SSE7.4 kmh SSE 8.1 mph13.0 kmh 29.73 in1006.8 mb - 0.00 in0.0 mm 0.00 in0.0 mm
08:25 AM 81.9°F27.7°C 64.2°F17.9°C 55% 9.2 mph ESE14.8 kmh ESE 5.8 mph9.3 kmh 29.73 in1006.8 mb - 0.00 in0.0 mm 0.00 in0.0 mm
08:30 AM 82.1°F27.8°C 64.3°F17.9°C 55% 5.8 mph S9.3 kmh S 9.2 mph14.8 kmh 29.73 in1006.8 mb - 0.00 in0.0 mm 0.00 in0.0 mm
08:35 AM 82.8°F28.2°C 64.9°F18.3°C 55% 8.1 mph SE13.0 kmh SE 8.1 mph13.0 kmh 29.73 in1006.8 mb - 0.00 in0.0 mm 0.00 in0.0 mm
08:40 AM 83.1°F28.4°C 65.3°F18.5°C 55% 6.9 mph SSW11.1 kmh SSW 8.1 mph13.0 kmh 29.73 in1006.8 mb - 0.00 in0.0 mm 0.00 in0.0 mm
08:45 AM 83.3°F28.5°C 64.9°F18.3°C 54% 6.9 mph SSE11.1 kmh SSE 10.4 mph16.7 kmh 29.73 in1006.8 mb - 0.00 in0.0 mm 0.00 in0.0 mm
08:50 AM 83.6°F28.7°C 65.2°F18.4°C 54% 4.6 mph SW7.4 kmh SW 4.6 mph7.4 kmh 29.73 in1006.8 mb - 0.00 in0.0 mm 0.00 in0.0 mm
08:55 AM 84.0°F28.9°C 65.0°F18.3°C 53% 4.6 mph SSE7.4 kmh SSE 6.9 mph11.1 kmh 29.73 in1006.8 mb - 0.00 in0.0 mm 0.00 in0.0 mm
09:00 AM 84.0°F28.9°C 64.5°F18.1°C 52% 5.8 mph S9.3 kmh S 5.8 mph9.3 kmh 29.73 in1006.8 mb - 0.00 in0.0 mm 0.00 in0.0 mm
09:10 AM 84.2°F29.0°C 63.5°F17.5°C 50% 4.6 mph SW7.4 kmh SW 8.1 mph13.0 kmh 29.73 in1006.8 mb - 0.00 in0.0 mm 0.00 in0.0 mm
09:15 AM 84.7°F29.3°C 64.6°F18.1°C 51% 5.8 mph SW9.3 kmh SW 8.1 mph13.0 kmh 29.73 in1006.8 mb - 0.00 in0.0 mm 0.00 in0.0 mm
09:20 AM 84.6°F29.2°C 63.9°F17.7°C 50% 4.6 mph SE7.4 kmh SE 8.1 mph13.0 kmh 29.73 in1006.8 mb - 0.00 in0.0 mm 0.00 in0.0 mm
09:25 AM 85.0°F29.4°C 64.3°F17.9°C 50% 6.9 mph SE11.1 kmh SE 8.1 mph13.0 kmh 29.73 in1006.8 mb - 0.00 in0.0 mm 0.00 in0.0 mm
09:30 AM 85.1°F29.5°C 64.4°F18.0°C 50% 4.6 mph SSW7.4 kmh SSW 4.6 mph7.4 kmh 29.74 in1007.1 mb - 0.00 in0.0 mm 0.00 in0.0 mm
09:35 AM 85.6°F29.8°C 64.9°F18.3°C 50% 5.8 mph SSW9.3 kmh SSW 8.1 mph13.0 kmh 29.74 in1007.1 mb - 0.00 in0.0 mm 0.00 in0.0 mm
09:40 AM 85.6°F29.8°C 64.3°F17.9°C 49% 5.8 mph SSW9.3 kmh SSW 4.6 mph7.4 kmh 29.74 in1007.1 mb - 0.00 in0.0 mm 0.00 in0.0 mm
09:45 AM 86.2°F30.1°C 65.3°F18.5°C 50% 4.6 mph S7.4 kmh S 6.9 mph11.1 kmh 29.74 in1007.1 mb - 0.00 in0.0 mm 0.00 in0.0 mm
09:50 AM 86.5°F30.3°C 65.1°F18.4°C 49% 4.6 mph SSE7.4 kmh SSE 9.2 mph14.8 kmh 29.74 in1007.1 mb - 0.00 in0.0 mm 0.00 in0.0 mm
09:55 AM 86.4°F30.2°C 64.9°F18.3°C 49% 4.6 mph SSW7.4 kmh SSW 4.6 mph7.4 kmh 29.74 in1007.1 mb - 0.00 in0.0 mm 0.00 in0.0 mm
10:00 AM 86.2°F30.1°C 64.2°F17.9°C 48% 3.5 mph S5.6 kmh S 4.6 mph7.4 kmh 29.74 in1007.1 mb - 0.00 in0.0 mm 0.00 in0.0 mm
10:10 AM 86.5°F30.3°C 64.5°F18.1°C 48% 5.8 mph S9.3 kmh S 9.2 mph14.8 kmh 29.74 in1007.1 mb - 0.00 in0.0 mm 0.00 in0.0 mm
10:15 AM 87.1°F30.6°C 65.0°F18.3°C 48% 6.9 mph SSW11.1 kmh SSW 9.2 mph14.8 kmh 29.73 in1006.8 mb - 0.00 in0.0 mm 0.00 in0.0 mm
10:20 AM 87.2°F30.7°C 65.2°F18.4°C 48% 6.9 mph SSE11.1 kmh SSE 9.2 mph14.8 kmh 29.73 in1006.8 mb - 0.00 in0.0 mm 0.00 in0.0 mm
10:25 AM 87.6°F30.9°C 65.5°F18.6°C 48% 5.8 mph S9.3 kmh S 8.1 mph13.0 kmh 29.73 in1006.8 mb - 0.00 in0.0 mm 0.00 in0.0 mm
10:30 AM 87.6°F30.9°C 64.9°F18.3°C 47% 3.5 mph S5.6 kmh S 8.1 mph13.0 kmh 29.74 in1007.1 mb - 0.00 in0.0 mm 0.00 in0.0 mm
10:35 AM 87.8°F31.0°C 64.4°F18.0°C 46% 4.6 mph S7.4 kmh S 5.8 mph9.3 kmh 29.74 in1007.1 mb - 0.00 in0.0 mm 0.00 in0.0 mm
10:40 AM 88.2°F31.2°C 64.8°F18.2°C 46% 4.6 mph SW7.4 kmh SW 4.6 mph7.4 kmh 29.74 in1007.1 mb - 0.00 in0.0 mm 0.00 in0.0 mm
10:45 AM 88.7°F31.5°C 65.2°F18.4°C 46% 4.6 mph S7.4 kmh S 8.1 mph13.0 kmh 29.73 in1006.8 mb - 0.00 in0.0 mm 0.00 in0.0 mm
10:50 AM 88.9°F31.6°C 64.8°F18.2°C 45% 3.5 mph SW5.6 kmh SW 2.3 mph3.7 kmh 29.73 in1006.8 mb - 0.00 in0.0 mm 0.00 in0.0 mm
10:55 AM 88.8°F31.6°C 64.0°F17.8°C 44% 5.8 mph S9.3 kmh S 6.9 mph11.1 kmh 29.73 in1006.8 mb - 0.00 in0.0 mm 0.00 in0.0 mm
11:00 AM 89.1°F31.7°C 64.3°F17.9°C 44% 5.8 mph SW9.3 kmh SW 6.9 mph11.1 kmh 29.73 in1006.8 mb - 0.00 in0.0 mm 0.00 in0.0 mm
11:10 AM 88.7°F31.5°C 63.3°F17.4°C 43% 5.8 mph SW9.3 kmh SW 5.8 mph9.3 kmh 29.73 in1006.8 mb - 0.00 in0.0 mm 0.00 in0.0 mm
11:15 AM 89.2°F31.8°C 64.5°F18.1°C 44% 5.8 mph SSW9.3 kmh SSW 6.9 mph11.1 kmh 29.73 in1006.8 mb - 0.00 in0.0 mm 0.00 in0.0 mm
11:20 AM 89.9°F32.2°C 65.1°F18.4°C 44% 3.5 mph SSW5.6 kmh SSW 4.6 mph7.4 kmh 29.73 in1006.8 mb - 0.00 in0.0 mm 0.00 in0.0 mm
11:25 AM 90.4°F32.4°C 66.1°F18.9°C 45% 2.3 mph WNW3.7 kmh WNW 3.5 mph5.6 kmh 29.73 in1006.8 mb - 0.00 in0.0 mm 0.00 in0.0 mm
11:30 AM 90.9°F32.7°C 65.9°F18.8°C 44% 4.6 mph SW7.4 kmh SW 4.6 mph7.4 kmh 29.73 in1006.8 mb - 0.00 in0.0 mm 0.00 in0.0 mm
11:35 AM 90.7°F32.6°C 65.8°F18.8°C 44% 4.6 mph SSW7.4 kmh SSW 5.8 mph9.3 kmh 29.73 in1006.8 mb - 0.00 in0.0 mm 0.00 in0.0 mm
11:40 AM 90.7°F32.6°C 65.1°F18.4°C 43% 5.8 mph SW9.3 kmh SW 6.9 mph11.1 kmh 29.73 in1006.8 mb - 0.00 in0.0 mm 0.00 in0.0 mm
11:45 AM 90.8°F32.7°C 65.2°F18.4°C 43% 5.8 mph SSW9.3 kmh SSW 6.9 mph11.1 kmh 29.72 in1006.4 mb - 0.00 in0.0 mm 0.00 in0.0 mm
11:50 AM 90.9°F32.7°C 65.9°F18.8°C 44% 5.8 mph SSW9.3 kmh SSW 6.9 mph11.1 kmh 29.72 in1006.4 mb - 0.00 in0.0 mm 0.00 in0.0 mm
11:55 AM 91.0°F32.8°C 65.4°F18.6°C 43% 5.8 mph S9.3 kmh S 6.9 mph11.1 kmh 29.72 in1006.4 mb - 0.00 in0.0 mm 0.00 in0.0 mm
12:00 PM 91.0°F32.8°C 65.4°F18.6°C 43% 6.9 mph SE11.1 kmh SE 8.1 mph13.0 kmh 29.72 in1006.4 mb - 0.00 in0.0 mm 0.00 in0.0 mm
12:10 PM 91.6°F33.1°C 65.9°F18.8°C 43% 6.9 mph S11.1 kmh S 6.9 mph11.1 kmh 29.72 in1006.4 mb - 0.00 in0.0 mm 0.00 in0.0 mm
12:15 PM 91.5°F33.1°C 65.2°F18.4°C 42% 6.9 mph S11.1 kmh S 9.2 mph14.8 kmh 29.71 in1006.1 mb - 0.00 in0.0 mm 0.00 in0.0 mm
12:20 PM 91.9°F33.3°C 65.6°F18.7°C 42% 3.5 mph NW5.6 kmh NW 4.6 mph7.4 kmh 29.71 in1006.1 mb - 0.00 in0.0 mm 0.00 in0.0 mm
12:25 PM 92.1°F33.4°C 65.7°F18.7°C 42% 3.5 mph W5.6 kmh W 5.8 mph9.3 kmh 29.71 in1006.1 mb - 0.00 in0.0 mm 0.00 in0.0 mm
12:30 PM 92.5°F33.6°C 65.4°F18.6°C 41% 3.5 mph NW5.6 kmh NW 8.1 mph13.0 kmh 29.71 in1006.1 mb - 0.00 in0.0 mm 0.00 in0.0 mm
12:35 PM 92.7°F33.7°C 65.5°F18.6°C 41% 4.6 mph SSW7.4 kmh SSW 5.8 mph9.3 kmh 29.71 in1006.1 mb - 0.00 in0.0 mm 0.00 in0.0 mm
12:40 PM 92.8°F33.8°C 65.0°F18.3°C 40% 3.5 mph SW5.6 kmh SW 4.6 mph7.4 kmh 29.71 in1006.1 mb - 0.00 in0.0 mm 0.00 in0.0 mm
12:45 PM 93.1°F33.9°C 65.9°F18.8°C 41% 4.6 mph S7.4 kmh S 10.4 mph16.7 kmh 29.71 in1006.1 mb - 0.00 in0.0 mm 0.00 in0.0 mm
12:50 PM 93.2°F34.0°C 64.6°F18.1°C 39% 3.5 mph S5.6 kmh S 4.6 mph7.4 kmh 29.71 in1006.1 mb - 0.00 in0.0 mm 0.00 in0.0 mm
12:55 PM 93.2°F34.0°C 63.8°F17.7°C 38% 3.5 mph SW5.6 kmh SW 6.9 mph11.1 kmh 29.71 in1006.1 mb - 0.00 in0.0 mm 0.00 in0.0 mm
01:00 PM 93.0°F33.9°C 65.1°F18.4°C 40% 4.6 mph SW7.4 kmh SW 5.8 mph9.3 kmh 29.70 in1005.8 mb - 0.00 in0.0 mm 0.00 in0.0 mm
01:10 PM 93.4°F34.1°C 64.7°F18.2°C 39% 5.8 mph SE9.3 kmh SE 8.1 mph13.0 kmh 29.70 in1005.8 mb - 0.00 in0.0 mm 0.00 in0.0 mm
01:15 PM 93.6°F34.2°C 63.4°F17.4°C 37% 4.6 mph SSW7.4 kmh SSW 3.5 mph5.6 kmh 29.69 in1005.4 mb - 0.00 in0.0 mm 0.00 in0.0 mm
01:20 PM 93.8°F34.3°C 65.1°F18.4°C 39% 3.5 mph SSW5.6 kmh SSW 5.8 mph9.3 kmh 29.69 in1005.4 mb - 0.00 in0.0 mm 0.00 in0.0 mm
01:25 PM 93.5°F34.2°C 63.4°F17.4°C 37% 5.8 mph SSW9.3 kmh SSW 6.9 mph11.1 kmh 29.69 in1005.4 mb - 0.00 in0.0 mm 0.00 in0.0 mm
01:30 PM 93.6°F34.2°C 64.1°F17.8°C 38% 5.8 mph SSW9.3 kmh SSW 6.9 mph11.1 kmh 29.70 in1005.8 mb - 0.00 in0.0 mm 0.00 in0.0 mm
01:35 PM 93.7°F34.3°C 63.5°F17.5°C 37% 5.8 mph SSW9.3 kmh SSW 6.9 mph11.1 kmh 29.70 in1005.8 mb - 0.00 in0.0 mm 0.00 in0.0 mm
01:40 PM 93.9°F34.4°C 64.5°F18.1°C 38% 4.6 mph SW7.4 kmh SW 5.8 mph9.3 kmh 29.70 in1005.8 mb - 0.00 in0.0 mm 0.00 in0.0 mm
01:45 PM 94.2°F34.6°C 64.0°F17.8°C 37% 4.6 mph S7.4 kmh S 5.8 mph9.3 kmh 29.70 in1005.8 mb - 0.00 in0.0 mm 0.00 in0.0 mm
01:50 PM 94.5°F34.7°C 64.2°F17.9°C 37% 5.8 mph SSW9.3 kmh SSW 6.9 mph11.1 kmh 29.70 in1005.8 mb - 0.00 in0.0 mm 0.00 in0.0 mm
01:55 PM 94.3°F34.6°C 64.0°F17.8°C 37% 3.5 mph SW5.6 kmh SW 4.6 mph7.4 kmh 29.70 in1005.8 mb - 0.00 in0.0 mm 0.00 in0.0 mm
02:00 PM 94.5°F34.7°C 63.4°F17.4°C 36% 4.6 mph SSW7.4 kmh SSW 5.8 mph9.3 kmh 29.70 in1005.8 mb - 0.00 in0.0 mm 0.00 in0.0 mm
02:10 PM 94.6°F34.8°C 63.5°F17.5°C 36% 4.6 mph SW7.4 kmh SW 4.6 mph7.4 kmh 29.70 in1005.8 mb - 0.00 in0.0 mm 0.00 in0.0 mm
02:15 PM 94.8°F34.9°C 64.4°F18.0°C 37% 4.6 mph SSW7.4 kmh SSW 6.9 mph11.1 kmh 29.68 in1005.1 mb - 0.00 in0.0 mm 0.00 in0.0 mm
02:20 PM 94.8°F34.9°C 64.5°F18.1°C 37% 4.6 mph S7.4 kmh S 5.8 mph9.3 kmh 29.68 in1005.1 mb - 0.00 in0.0 mm 0.00 in0.0 mm
02:25 PM 94.5°F34.7°C 63.4°F17.4°C 36% 6.9 mph SSW11.1 kmh SSW 5.8 mph9.3 kmh 29.68 in1005.1 mb - 0.00 in0.0 mm 0.00 in0.0 mm
02:30 PM 94.6°F34.8°C 63.5°F17.5°C 36% 4.6 mph SSW7.4 kmh SSW 6.9 mph11.1 kmh 29.68 in1005.1 mb - 0.00 in0.0 mm 0.00 in0.0 mm
02:35 PM 94.5°F34.7°C 63.4°F17.4°C 36% 5.8 mph S9.3 kmh S 5.8 mph9.3 kmh 29.68 in1005.1 mb - 0.00 in0.0 mm 0.00 in0.0 mm
02:40 PM 94.6°F34.8°C 63.5°F17.5°C 36% 4.6 mph SSW7.4 kmh SSW 5.8 mph9.3 kmh 29.68 in1005.1 mb - 0.00 in0.0 mm 0.00 in0.0 mm
02:45 PM 94.3°F34.6°C 61.7°F16.5°C 34% 5.8 mph SW9.3 kmh SW 4.6 mph7.4 kmh 29.68 in1005.1 mb - 0.00 in0.0 mm 0.00 in0.0 mm
02:50 PM 94.3°F34.6°C 63.3°F17.4°C 36% 4.6 mph SSW7.4 kmh SSW 4.6 mph7.4 kmh 29.68 in1005.1 mb - 0.00 in0.0 mm 0.00 in0.0 mm
02:55 PM 94.3°F34.6°C 62.4°F16.9°C 35% 5.8 mph SW9.3 kmh SW 8.1 mph13.0 kmh 29.68 in1005.1 mb - 0.00 in0.0 mm 0.00 in0.0 mm
03:00 PM 94.5°F34.7°C 62.6°F17.0°C 35% 5.8 mph SW9.3 kmh SW 6.9 mph11.1 kmh 29.67 in1004.7 mb - 0.00 in0.0 mm 0.00 in0.0 mm
03:10 PM 94.8°F34.9°C 63.7°F17.6°C 36% 3.5 mph S5.6 kmh S 6.9 mph11.1 kmh 29.67 in1004.7 mb - 0.00 in0.0 mm 0.00 in0.0 mm
03:15 PM 94.6°F34.8°C 63.5°F17.5°C 36% 3.5 mph SE5.6 kmh SE 5.8 mph9.3 kmh 29.67 in1004.7 mb - 0.00 in0.0 mm 0.00 in0.0 mm
03:20 PM 94.6°F34.8°C 63.5°F17.5°C 36% 5.8 mph S9.3 kmh S 8.1 mph13.0 kmh 29.67 in1004.7 mb - 0.00 in0.0 mm 0.00 in0.0 mm
03:25 PM 94.6°F34.8°C 63.5°F17.5°C 36% 4.6 mph SW7.4 kmh SW 6.9 mph11.1 kmh 29.67 in1004.7 mb - 0.00 in0.0 mm 0.00 in0.0 mm
03:30 PM 94.6°F34.8°C 63.5°F17.5°C 36% 5.8 mph SW9.3 kmh SW 6.9 mph11.1 kmh 29.66 in1004.4 mb - 0.00 in0.0 mm 0.00 in0.0 mm
03:35 PM 94.1°F34.5°C 61.4°F16.3°C 34% 4.6 mph SSW7.4 kmh SSW 5.8 mph9.3 kmh 29.66 in1004.4 mb - 0.00 in0.0 mm 0.00 in0.0 mm
03:40 PM 94.4°F34.7°C 63.4°F17.4°C 36% 4.6 mph S7.4 kmh S 4.6 mph7.4 kmh 29.66 in1004.4 mb - 0.00 in0.0 mm 0.00 in0.0 mm
03:45 PM 94.4°F34.7°C 62.5°F16.9°C 35% 5.8 mph SW9.3 kmh SW 6.9 mph11.1 kmh 29.65 in1004.1 mb - 0.00 in0.0 mm 0.00 in0.0 mm
03:50 PM 94.3°F34.6°C 63.2°F17.3°C 36% 5.8 mph SSW9.3 kmh SSW 6.9 mph11.1 kmh 29.65 in1004.1 mb - 0.00 in0.0 mm 0.00 in0.0 mm
03:55 PM 94.3°F34.6°C 62.4°F16.9°C 35% 4.6 mph SSE7.4 kmh SSE 8.1 mph13.0 kmh 29.65 in1004.1 mb - 0.00 in0.0 mm 0.00 in0.0 mm
04:00 PM 94.5°F34.7°C 63.4°F17.4°C 36% 5.8 mph SSW9.3 kmh SSW 6.9 mph11.1 kmh 29.64 in1003.7 mb - 0.00 in0.0 mm 0.00 in0.0 mm
04:10 PM 94.0°F34.4°C 61.3°F16.3°C 34% 6.9 mph S11.1 kmh S 6.9 mph11.1 kmh 29.64 in1003.7 mb - 0.00 in0.0 mm 0.00 in0.0 mm
04:15 PM 94.0°F34.4°C 60.5°F15.8°C 33% 4.6 mph SSW7.4 kmh SSW 8.1 mph13.0 kmh 29.64 in1003.7 mb - 0.00 in0.0 mm 0.00 in0.0 mm
04:20 PM 93.9°F34.4°C 60.4°F15.8°C 33% 5.8 mph S9.3 kmh S 8.1 mph13.0 kmh 29.64 in1003.7 mb - 0.00 in0.0 mm 0.00 in0.0 mm
04:25 PM 93.7°F34.3°C 61.1°F16.2°C 34% 4.6 mph S7.4 kmh S 5.8 mph9.3 kmh 29.64 in1003.7 mb - 0.00 in0.0 mm 0.00 in0.0 mm
04:30 PM 93.7°F34.3°C 61.1°F16.2°C 34% 3.5 mph S5.6 kmh S 5.8 mph9.3 kmh 29.64 in1003.7 mb - 0.00 in0.0 mm 0.00 in0.0 mm
04:35 PM 94.3°F34.6°C 61.6°F16.4°C 34% 3.5 mph SSW5.6 kmh SSW 5.8 mph9.3 kmh 29.64 in1003.7 mb - 0.00 in0.0 mm 0.00 in0.0 mm
04:40 PM 93.9°F34.4°C 60.4°F15.8°C 33% 4.6 mph S7.4 kmh S 5.8 mph9.3 kmh 29.64 in1003.7 mb - 0.00 in0.0 mm 0.00 in0.0 mm
04:45 PM 93.8°F34.3°C 61.2°F16.2°C 34% 2.3 mph SSW3.7 kmh SSW 3.5 mph5.6 kmh 29.64 in1003.7 mb - 0.00 in0.0 mm 0.00 in0.0 mm
04:50 PM 94.5°F34.7°C 61.8°F16.6°C 34% 3.5 mph SSW5.6 kmh SSW 3.5 mph5.6 kmh 29.64 in1003.7 mb - 0.00 in0.0 mm 0.00 in0.0 mm
04:55 PM 94.1°F34.5°C 60.6°F15.9°C 33% 5.8 mph SW9.3 kmh SW 5.8 mph9.3 kmh 29.64 in1003.7 mb - 0.00 in0.0 mm 0.00 in0.0 mm
05:00 PM 94.1°F34.5°C 61.4°F16.3°C 34% 4.6 mph SSW7.4 kmh SSW 5.8 mph9.3 kmh 29.64 in1003.7 mb - 0.00 in0.0 mm 0.00 in0.0 mm
05:10 PM 93.4°F34.1°C 60.9°F16.1°C 34% 4.6 mph SSW7.4 kmh SSW 4.6 mph7.4 kmh 29.64 in1003.7 mb - 0.00 in0.0 mm 0.00 in0.0 mm
05:15 PM 93.1°F33.9°C 60.6°F15.9°C 34% 3.5 mph SSW5.6 kmh SSW 3.5 mph5.6 kmh 29.63 in1003.4 mb - 0.00 in0.0 mm 0.00 in0.0 mm
05:20 PM 92.6°F33.7°C 61.0°F16.1°C 35% 3.5 mph SSW5.6 kmh SSW 5.8 mph9.3 kmh 29.63 in1003.4 mb - 0.00 in0.0 mm 0.00 in0.0 mm
05:25 PM 92.1°F33.4°C 59.7°F15.4°C 34% 3.5 mph SSW5.6 kmh SSW 4.6 mph7.4 kmh 29.63 in1003.4 mb - 0.00 in0.0 mm 0.00 in0.0 mm
05:30 PM 91.8°F33.2°C 60.2°F15.7°C 35% 2.3 mph SW3.7 kmh SW 3.5 mph5.6 kmh 29.63 in1003.4 mb - 0.00 in0.0 mm 0.00 in0.0 mm
05:35 PM 91.4°F33.0°C 59.9°F15.5°C 35% 2.3 mph SSW3.7 kmh SSW 3.5 mph5.6 kmh 29.63 in1003.4 mb - 0.00 in0.0 mm 0.00 in0.0 mm
05:40 PM 91.0°F32.8°C 61.1°F16.2°C 37% 1.2 mph S1.9 kmh S 2.3 mph3.7 kmh 29.63 in1003.4 mb - 0.00 in0.0 mm 0.00 in0.0 mm
05:45 PM 90.7°F32.6°C 60.8°F16.0°C 37% 1.2 mph S1.9 kmh S 1.2 mph1.9 kmh 29.64 in1003.7 mb - 0.00 in0.0 mm 0.00 in0.0 mm
05:50 PM 90.3°F32.4°C 61.2°F16.2°C 38% 3.5 mph S5.6 kmh S 3.5 mph5.6 kmh 29.64 in1003.7 mb - 0.00 in0.0 mm 0.00 in0.0 mm
05:55 PM 90.0°F32.2°C 61.7°F16.5°C 39% 3.5 mph S5.6 kmh S 4.6 mph7.4 kmh 29.64 in1003.7 mb - 0.00 in0.0 mm 0.00 in0.0 mm
06:00 PM 89.6°F32.0°C 62.1°F16.7°C 40% 2.3 mph S3.7 kmh S 2.3 mph3.7 kmh 29.63 in1003.4 mb - 0.00 in0.0 mm 0.00 in0.0 mm
06:10 PM 88.9°F31.6°C 62.8°F17.1°C 42% 2.3 mph S3.7 kmh S 2.3 mph3.7 kmh 29.63 in1003.4 mb - 0.00 in0.0 mm 0.00 in0.0 mm
06:15 PM 88.4°F31.3°C 63.1°F17.3°C 43% 2.3 mph SSW3.7 kmh SSW 4.6 mph7.4 kmh 29.63 in1003.4 mb - 0.00 in0.0 mm 0.00 in0.0 mm
06:20 PM 88.1°F31.2°C 63.5°F17.5°C 44% 3.5 mph S5.6 kmh S 5.8 mph9.3 kmh 29.63 in1003.4 mb - 0.00 in0.0 mm 0.00 in0.0 mm
06:25 PM 87.8°F31.0°C 63.2°F17.3°C 44% 2.3 mph SSW3.7 kmh SSW 3.5 mph5.6 kmh 29.63 in1003.4 mb - 0.00 in0.0 mm 0.00 in0.0 mm
06:30 PM 87.3°F30.7°C 63.3°F17.4°C 45% 3.5 mph S5.6 kmh S 3.5 mph5.6 kmh 29.64 in1003.7 mb - 0.00 in0.0 mm 0.00 in0.0 mm
06:35 PM 86.9°F30.5°C 63.6°F17.6°C 46% 2.3 mph SSW3.7 kmh SSW 3.5 mph5.6 kmh 29.64 in1003.7 mb - 0.00 in0.0 mm 0.00 in0.0 mm
06:40 PM 86.6°F30.3°C 63.4°F17.4°C 46% 2.3 mph SSW3.7 kmh SSW 3.5 mph5.6 kmh 29.64 in1003.7 mb - 0.00 in0.0 mm 0.00 in0.0 mm
06:45 PM 86.3°F30.2°C 63.7°F17.6°C 47% 2.3 mph S3.7 kmh S 2.3 mph3.7 kmh 29.64 in1003.7 mb - 0.00 in0.0 mm 0.00 in0.0 mm
06:50 PM 86.0°F30.0°C 63.4°F17.4°C 47% 2.3 mph SSW3.7 kmh SSW 3.5 mph5.6 kmh 29.64 in1003.7 mb - 0.00 in0.0 mm 0.00 in0.0 mm
06:55 PM 85.5°F29.7°C 63.5°F17.5°C 48% 2.3 mph SSW3.7 kmh SSW 3.5 mph5.6 kmh 29.64 in1003.7 mb - 0.00 in0.0 mm 0.00 in0.0 mm
07:00 PM 85.3°F29.6°C 64.0°F17.8°C 49% Calm Calm -- 29.64 in1003.7 mb - 0.00 in0.0 mm 0.00 in0.0 mm
07:10 PM 84.4°F29.1°C 63.8°F17.7°C 50% 2.3 mph S3.7 kmh S 4.6 mph7.4 kmh 29.64 in1003.7 mb - 0.00 in0.0 mm 0.00 in0.0 mm
07:15 PM 84.2°F29.0°C 64.1°F17.8°C 51% 2.3 mph S3.7 kmh S 1.2 mph1.9 kmh 29.63 in1003.4 mb - 0.00 in0.0 mm 0.00 in0.0 mm
07:20 PM 83.8°F28.8°C 64.3°F17.9°C 52% 2.3 mph S3.7 kmh S 2.3 mph3.7 kmh 29.63 in1003.4 mb - 0.00 in0.0 mm 0.00 in0.0 mm
07:25 PM 83.7°F28.7°C 64.7°F18.2°C 53% 1.2 mph S1.9 kmh S 1.2 mph1.9 kmh 29.63 in1003.4 mb - 0.00 in0.0 mm 0.00 in0.0 mm
07:30 PM 83.1°F28.4°C 64.2°F17.9°C 53% 1.2 mph S1.9 kmh S 2.3 mph3.7 kmh 29.63 in1003.4 mb - 0.00 in0.0 mm 0.00 in0.0 mm
07:35 PM 82.8°F28.2°C 64.4°F18.0°C 54% 2.3 mph S3.7 kmh S 3.5 mph5.6 kmh 29.63 in1003.4 mb - 0.00 in0.0 mm 0.00 in0.0 mm
07:40 PM 82.4°F28.0°C 64.1°F17.8°C 54% 1.2 mph S1.9 kmh S 2.3 mph3.7 kmh 29.63 in1003.4 mb - 0.00 in0.0 mm 0.00 in0.0 mm
07:45 PM 82.0°F27.8°C 64.3°F17.9°C 55% 1.2 mph SSW1.9 kmh SSW 1.2 mph1.9 kmh 29.63 in1003.4 mb - 0.00 in0.0 mm 0.00 in0.0 mm
07:50 PM 81.7°F27.6°C 64.5°F18.1°C 56% Calm Calm -- 29.63 in1003.4 mb - 0.00 in0.0 mm 0.00 in0.0 mm
07:55 PM 81.5°F27.5°C 64.3°F17.9°C 56% 2.3 mph S3.7 kmh S 2.3 mph3.7 kmh 29.63 in1003.4 mb - 0.00 in0.0 mm 0.00 in0.0 mm
08:00 PM 81.1°F27.3°C 64.5°F18.1°C 57% 2.3 mph SSW3.7 kmh SSW 3.5 mph5.6 kmh 29.63 in1003.4 mb - 0.00 in0.0 mm 0.00 in0.0 mm
08:10 PM 80.8°F27.1°C 64.6°F18.1°C 58% 2.3 mph SSW3.7 kmh SSW 3.5 mph5.6 kmh 29.63 in1003.4 mb - 0.00 in0.0 mm 0.00 in0.0 mm
08:15 PM 80.6°F27.0°C 64.5°F18.1°C 58% 2.3 mph S3.7 kmh S 3.5 mph5.6 kmh 29.63 in1003.4 mb - 0.00 in0.0 mm 0.00 in0.0 mm
08:20 PM 80.4°F26.9°C 65.3°F18.5°C 60% 3.5 mph S5.6 kmh S 3.5 mph5.6 kmh 29.63 in1003.4 mb - 0.00 in0.0 mm 0.00 in0.0 mm
08:25 PM 80.2°F26.8°C 65.1°F18.4°C 60% 2.3 mph S3.7 kmh S 3.5 mph5.6 kmh 29.63 in1003.4 mb - 0.00 in0.0 mm 0.00 in0.0 mm
08:30 PM 80.1°F26.7°C 64.9°F18.3°C 60% 1.2 mph SSE1.9 kmh SSE 3.5 mph5.6 kmh 29.63 in1003.4 mb - 0.00 in0.0 mm 0.00 in0.0 mm
08:35 PM 79.9°F26.6°C 64.8°F18.2°C 60% 2.3 mph SSW3.7 kmh SSW 3.5 mph5.6 kmh 29.63 in1003.4 mb - 0.00 in0.0 mm 0.00 in0.0 mm
08:40 PM 79.6°F26.4°C 65.0°F18.3°C 61% 2.3 mph SSW3.7 kmh SSW 2.3 mph3.7 kmh 29.63 in1003.4 mb - 0.00 in0.0 mm 0.00 in0.0 mm
08:45 PM 79.3°F26.3°C 64.7°F18.2°C 61% 3.5 mph S5.6 kmh S 3.5 mph5.6 kmh 29.64 in1003.7 mb - 0.00 in0.0 mm 0.00 in0.0 mm
08:50 PM 79.2°F26.2°C 65.0°F18.3°C 62% 2.3 mph SSW3.7 kmh SSW 3.5 mph5.6 kmh 29.64 in1003.7 mb - 0.00 in0.0 mm 0.00 in0.0 mm
08:55 PM 79.0°F26.1°C 64.8°F18.2°C 62% 2.3 mph SSW3.7 kmh SSW 2.3 mph3.7 kmh 29.64 in1003.7 mb - 0.00 in0.0 mm 0.00 in0.0 mm
09:00 PM 78.8°F26.0°C 65.1°F18.4°C 63% 2.3 mph S3.7 kmh S 3.5 mph5.6 kmh 29.64 in1003.7 mb - 0.00 in0.0 mm 0.00 in0.0 mm
09:10 PM 78.4°F25.8°C 64.8°F18.2°C 63% 1.2 mph S1.9 kmh S 2.3 mph3.7 kmh 29.64 in1003.7 mb - 0.00 in0.0 mm 0.00 in0.0 mm
09:15 PM 78.0°F25.6°C 64.9°F18.3°C 64% Calm Calm -- 29.64 in1003.7 mb - 0.00 in0.0 mm 0.00 in0.0 mm
09:20 PM 77.5°F25.3°C 64.8°F18.2°C 65% Calm Calm -- 29.64 in1003.7 mb - 0.00 in0.0 mm 0.00 in0.0 mm
09:25 PM 76.6°F24.8°C 65.7°F18.7°C 69% Calm Calm -- 29.64 in1003.7 mb - 0.00 in0.0 mm 0.00 in0.0 mm
09:30 PM 75.9°F24.4°C 65.8°F18.8°C 71% Calm Calm -- 29.65 in1004.1 mb - 0.00 in0.0 mm 0.00 in0.0 mm
09:35 PM 75.7°F24.3°C 64.8°F18.2°C 69% Calm Calm -- 29.65 in1004.1 mb - 0.00 in0.0 mm 0.00 in0.0 mm
09:40 PM 75.7°F24.3°C 64.8°F18.2°C 69% Calm Calm -- 29.65 in1004.1 mb - 0.00 in0.0 mm 0.00 in0.0 mm
09:45 PM 75.3°F24.1°C 64.5°F18.1°C 69% Calm Calm -- 29.64 in1003.7 mb - 0.00 in0.0 mm 0.00 in0.0 mm
09:50 PM 75.0°F23.9°C 64.6°F18.1°C 70% Calm Calm -- 29.64 in1003.7 mb - 0.00 in0.0 mm 0.00 in0.0 mm
09:55 PM 74.3°F23.5°C 65.1°F18.4°C 73% Calm Calm -- 29.64 in1003.7 mb - 0.00 in0.0 mm 0.00 in0.0 mm
10:00 PM 73.8°F23.2°C 65.0°F18.3°C 74% Calm Calm -- 29.65 in1004.1 mb - 0.00 in0.0 mm 0.00 in0.0 mm
10:10 PM 73.4°F23.0°C 64.2°F17.9°C 73% Calm Calm -- 29.65 in1004.1 mb - 0.00 in0.0 mm 0.00 in0.0 mm
10:15 PM 73.2°F22.9°C 64.0°F17.8°C 73% Calm Calm -- 29.65 in1004.1 mb - 0.00 in0.0 mm 0.00 in0.0 mm
10:20 PM 72.9°F22.7°C 63.7°F17.6°C 73% Calm Calm -- 29.65 in1004.1 mb - 0.00 in0.0 mm 0.00 in0.0 mm
10:25 PM 72.1°F22.3°C 64.9°F18.3°C 78% Calm Calm -- 29.65 in1004.1 mb - 0.00 in0.0 mm 0.00 in0.0 mm
10:30 PM 72.1°F22.3°C 63.8°F17.7°C 75% Calm Calm -- 29.65 in1004.1 mb - 0.00 in0.0 mm 0.00 in0.0 mm
10:35 PM 72.0°F22.2°C 63.6°F17.6°C 75% Calm Calm -- 29.65 in1004.1 mb - 0.00 in0.0 mm 0.00 in0.0 mm
10:40 PM 71.7°F22.1°C 63.4°F17.4°C 75% Calm Calm -- 29.65 in1004.1 mb - 0.00 in0.0 mm 0.00 in0.0 mm
10:45 PM 71.4°F21.9°C 63.5°F17.5°C 76% Calm Calm -- 29.64 in1003.7 mb - 0.00 in0.0 mm 0.00 in0.0 mm
10:50 PM 71.2°F21.8°C 63.3°F17.4°C 76% Calm Calm -- 29.64 in1003.7 mb - 0.00 in0.0 mm 0.00 in0.0 mm
10:55 PM 71.1°F21.7°C 63.1°F17.3°C 76% Calm Calm -- 29.64 in1003.7 mb - 0.00 in0.0 mm 0.00 in0.0 mm
11:00 PM 70.9°F21.6°C 62.9°F17.2°C 76% Calm Calm -- 29.65 in1004.1 mb - 0.00 in0.0 mm 0.00 in0.0 mm
11:10 PM 70.6°F21.4°C 62.7°F17.1°C 76% Calm Calm -- 29.65 in1004.1 mb - 0.00 in0.0 mm 0.00 in0.0 mm
11:15 PM 70.5°F21.4°C 62.6°F17.0°C 76% Calm Calm -- 29.65 in1004.1 mb - 0.00 in0.0 mm 0.00 in0.0 mm
11:20 PM 70.2°F21.2°C 62.2°F16.8°C 76% Calm Calm -- 29.65 in1004.1 mb - 0.00 in0.0 mm 0.00 in0.0 mm
11:25 PM 69.8°F21.0°C 61.9°F16.6°C 76% Calm Calm -- 29.65 in1004.1 mb - 0.00 in0.0 mm 0.00 in0.0 mm
11:30 PM 69.8°F21.0°C 62.6°F17.0°C 78% Calm Calm -- 29.64 in1003.7 mb - 0.00 in0.0 mm 0.00 in0.0 mm
11:35 PM 69.6°F20.9°C 62.8°F17.1°C 79% Calm Calm -- 29.64 in1003.7 mb - 0.00 in0.0 mm 0.00 in0.0 mm
11:40 PM 69.4°F20.8°C 62.6°F17.0°C 79% Calm Calm -- 29.64 in1003.7 mb - 0.00 in0.0 mm 0.00 in0.0 mm
11:45 PM 69.4°F20.8°C 63.4°F17.4°C 81% Calm Calm -- 29.64 in1003.7 mb - 0.00 in0.0 mm 0.00 in0.0 mm
11:50 PM 69.6°F20.9°C 64.2°F17.9°C 83% Calm Calm -- 29.64 in1003.7 mb - 0.00 in0.0 mm 0.00 in0.0 mm
11:55 PM 69.4°F20.8°C 63.4°F17.4°C 81% Calm Calm -- 29.64 in1003.7 mb - 0.00 in0.0 mm 0.00 in0.0 mm